createdAt,value
2018-05-16T03:19:26.771Z,1.27
2018-05-16T03:21:55.326Z,1.50
2018-05-16T03:24:23.885Z,1.17
2018-05-16T03:26:52.444Z,1.30
2018-05-16T03:29:20.999Z,1.07
2018-05-16T03:31:49.556Z,1.33
2018-05-16T03:34:18.339Z,1.13
2018-05-16T03:36:46.924Z,1.40
2018-05-16T03:39:15.473Z,1.20
2018-05-16T03:41:44.024Z,1.57
2018-05-16T03:44:12.586Z,1.20
2018-05-16T03:46:41.141Z,1.30
2018-05-16T03:49:09.708Z,1.27
2018-05-16T03:51:38.271Z,1.10
2018-05-16T03:54:06.867Z,1.20
2018-05-16T03:56:35.480Z,1.27
2018-05-16T03:59:15.063Z,0.90
2018-05-16T04:01:54.735Z,1.00
2018-05-16T04:04:23.288Z,0.93
2018-05-16T04:06:51.836Z,1.00
2018-05-16T04:09:20.435Z,1.17
2018-05-16T04:11:49.033Z,0.97
2018-05-16T04:14:17.586Z,1.00
2018-05-16T04:16:46.164Z,1.30
2018-05-16T04:19:14.768Z,0.90
2018-05-16T04:21:43.371Z,0.70
2018-05-16T04:24:12.007Z,1.10
2018-05-16T04:26:40.610Z,1.30
2018-05-16T04:29:09.175Z,1.20
2018-05-16T04:31:37.761Z,1.40
2018-05-16T04:34:06.346Z,1.10
2018-05-16T04:36:34.906Z,1.90
2018-05-16T04:39:03.244Z,1.40
2018-05-16T04:41:31.795Z,1.70
2018-05-16T04:44:00.352Z,1.17
2018-05-16T04:46:28.907Z,1.50
2018-05-16T04:48:57.470Z,1.10
2018-05-16T04:51:26.014Z,1.30
2018-05-16T04:53:54.579Z,1.20
2018-05-16T04:56:23.136Z,1.23
2018-05-16T04:58:51.694Z,1.10
2018-05-16T05:01:20.244Z,1.00
2018-05-16T05:03:48.828Z,1.30
2018-05-16T05:06:17.410Z,1.60
2018-05-16T05:08:45.980Z,1.60
2018-05-16T05:11:14.529Z,1.67
2018-05-16T05:13:43.096Z,1.30
2018-05-16T05:16:11.647Z,1.23
2018-05-16T05:18:40.354Z,1.50
2018-05-16T05:21:09.016Z,1.50
2018-05-16T05:23:37.585Z,1.73
2018-05-16T05:26:06.157Z,2.30
2018-05-16T05:28:34.698Z,2.10
2018-05-16T05:31:03.251Z,1.70
2018-05-16T05:33:31.869Z,1.80
2018-05-16T05:36:00.079Z,2.63
2018-05-16T05:38:28.683Z,2.00
2018-05-16T05:40:57.240Z,1.50
2018-05-16T05:43:25.884Z,2.20
2018-05-16T05:45:54.607Z,1.93
2018-05-16T05:48:23.174Z,1.60
2018-05-16T05:50:51.811Z,2.17
2018-05-16T05:53:20.542Z,1.90
2018-05-16T05:55:49.119Z,1.90
2018-05-16T05:58:17.759Z,2.00
2018-05-16T06:00:46.356Z,1.60
2018-05-16T06:03:14.923Z,2.40
2018-05-16T06:05:43.567Z,2.43
2018-05-16T06:08:12.132Z,2.00
2018-05-16T06:10:40.751Z,2.40
2018-05-16T06:13:09.306Z,1.97
2018-05-16T06:15:37.861Z,2.30
2018-05-16T06:18:06.494Z,1.80
2018-05-16T06:20:35.058Z,1.67
2018-05-16T06:23:03.702Z,2.30
2018-05-16T06:25:32.269Z,2.33
2018-05-16T06:28:01.008Z,1.70
2018-05-16T06:30:29.608Z,1.97
2018-05-16T06:32:58.167Z,4.73
2018-05-16T06:35:26.776Z,4.20
2018-05-16T06:37:55.341Z,3.93
2018-05-16T06:40:23.926Z,2.60
2018-05-16T06:42:52.479Z,2.30
2018-05-16T06:45:21.019Z,2.50
2018-05-16T06:47:49.575Z,2.10
2018-05-16T06:50:18.154Z,2.63
2018-05-16T06:52:46.711Z,2.30
2018-05-16T06:55:15.283Z,2.30
2018-05-16T06:57:43.893Z,2.10
2018-05-16T07:00:12.451Z,2.10
2018-05-16T07:02:41.011Z,2.07
2018-05-16T07:05:09.597Z,2.10
2018-05-16T07:07:38.160Z,2.23
2018-05-16T07:10:06.727Z,2.47
2018-05-16T07:12:35.292Z,2.00
2018-05-16T07:15:03.853Z,1.87
2018-05-16T07:17:32.414Z,2.23
2018-05-16T07:20:00.973Z,2.23
2018-05-16T07:22:29.533Z,2.20
2018-05-16T07:24:58.088Z,2.00
2018-05-16T07:27:26.666Z,2.13
2018-05-16T07:29:55.460Z,2.20
2018-05-16T07:32:24.038Z,2.20
2018-05-16T07:34:52.608Z,2.23
2018-05-16T07:37:21.173Z,2.07
2018-05-16T07:39:49.727Z,2.43
2018-05-16T07:42:18.511Z,2.40
2018-05-16T07:44:47.072Z,2.10
2018-05-16T07:47:15.645Z,2.50
2018-05-16T07:49:44.207Z,2.60
2018-05-16T07:52:12.786Z,2.47
2018-05-16T07:54:41.407Z,2.40
2018-05-16T07:57:09.967Z,2.13
2018-05-16T07:59:38.535Z,2.30
2018-05-16T08:02:07.113Z,2.03
2018-05-16T08:04:35.680Z,2.00
2018-05-16T08:07:03.900Z,2.20
2018-05-16T08:09:32.453Z,2.50
2018-05-16T08:12:01.240Z,2.00
2018-05-16T08:14:29.795Z,2.30
2018-05-16T08:16:58.358Z,2.30
2018-05-16T08:19:26.931Z,2.23
2018-05-16T08:21:55.559Z,2.30
2018-05-16T08:24:24.340Z,2.47
2018-05-16T08:26:53.111Z,2.37
2018-05-16T08:29:21.662Z,2.77
2018-05-16T08:31:50.237Z,2.90
2018-05-16T08:34:18.824Z,2.53
2018-05-16T08:36:47.389Z,2.67
2018-05-16T08:39:15.990Z,2.77
2018-05-16T08:41:44.581Z,2.70
2018-05-16T08:44:13.172Z,2.70
2018-05-16T08:46:41.773Z,2.50
2018-05-16T08:49:10.539Z,2.73
2018-05-16T08:51:39.336Z,2.73
2018-05-16T08:54:07.902Z,2.60
2018-05-16T08:56:36.497Z,3.27
2018-05-16T08:59:05.082Z,2.90
2018-05-16T09:01:33.631Z,2.70
2018-05-16T09:04:02.208Z,2.73
2018-05-16T09:06:30.771Z,2.50
2018-05-16T09:08:59.339Z,2.63
2018-05-16T09:11:27.910Z,2.90
2018-05-16T09:13:56.476Z,3.03
2018-05-16T09:16:25.041Z,3.37
2018-05-16T09:18:53.609Z,3.07
2018-05-16T09:21:22.180Z,2.80
2018-05-16T09:23:50.729Z,2.70
2018-05-16T09:26:19.300Z,4.00
2018-05-16T09:28:47.896Z,3.53
2018-05-16T09:31:16.442Z,3.03
2018-05-16T09:33:45.044Z,3.20
2018-05-16T09:36:13.610Z,4.17
2018-05-16T09:38:42.236Z,3.33
2018-05-16T09:41:10.806Z,2.87
2018-05-16T09:43:39.406Z,2.30
2018-05-16T09:46:07.969Z,3.43
2018-05-16T09:48:36.517Z,3.47
2018-05-16T09:51:05.093Z,2.20
2018-05-16T09:53:33.647Z,2.50
2018-05-16T09:56:02.238Z,2.47
2018-05-16T09:58:30.812Z,2.20
2018-05-16T10:00:59.412Z,2.77
2018-05-16T10:03:27.970Z,3.47
2018-05-16T10:05:56.527Z,2.60
2018-05-16T10:08:25.084Z,2.67
2018-05-16T10:10:53.640Z,2.30
2018-05-16T10:13:22.231Z,2.70
2018-05-16T10:15:50.799Z,3.23
2018-05-16T10:18:19.379Z,2.20
2018-05-16T10:20:47.939Z,2.87
2018-05-16T10:23:16.508Z,2.30
2018-05-16T10:25:45.104Z,2.00
2018-05-16T10:28:13.675Z,2.17
2018-05-16T10:30:42.281Z,2.10
2018-05-16T10:33:10.841Z,1.83
2018-05-16T10:35:39.410Z,1.97
2018-05-16T10:38:08.004Z,2.63
2018-05-16T10:40:36.714Z,2.53
2018-05-16T10:43:05.315Z,2.07
2018-05-16T10:45:33.901Z,2.30
2018-05-16T10:48:02.464Z,2.57
2018-05-16T10:50:31.101Z,2.23
2018-05-16T10:52:59.780Z,1.87
2018-05-16T10:55:28.349Z,2.20
2018-05-16T10:57:56.900Z,2.30
2018-05-16T11:00:25.462Z,2.10
2018-05-16T11:02:54.032Z,2.67
2018-05-16T11:05:22.627Z,1.80
2018-05-16T11:07:50.971Z,2.10
2018-05-16T11:10:19.308Z,1.87
2018-05-16T11:12:47.861Z,2.37
2018-05-16T11:15:16.428Z,2.10
2018-05-16T11:17:44.991Z,1.57
2018-05-16T11:20:13.630Z,1.90
2018-05-16T11:22:42.572Z,2.07
2018-05-16T11:25:11.368Z,1.90
2018-05-16T11:27:40.478Z,2.00
2018-05-16T11:30:09.116Z,1.77
2018-05-16T11:32:37.741Z,1.77
2018-05-16T11:35:06.325Z,1.90
2018-05-16T11:37:34.893Z,2.00
2018-05-16T11:40:03.449Z,2.27
2018-05-16T11:42:31.719Z,1.80
2018-05-16T11:45:00.419Z,2.00
2018-05-16T11:47:29.033Z,1.83
2018-05-16T11:49:57.608Z,2.07
2018-05-16T11:52:29.740Z,1.90
2018-05-16T11:54:58.315Z,1.87
2018-05-16T11:57:27.022Z,2.20
2018-05-16T11:59:55.582Z,2.60
2018-05-16T12:02:24.142Z,2.37
2018-05-16T12:04:52.748Z,2.33
2018-05-16T12:07:21.310Z,2.10
2018-05-16T12:09:49.936Z,3.47
2018-05-16T12:12:18.543Z,2.30
2018-05-16T12:14:47.181Z,2.80
2018-05-16T12:17:15.884Z,2.90
2018-05-16T12:19:44.450Z,2.07
2018-05-16T12:22:13.058Z,2.20
2018-05-16T12:24:41.649Z,2.10
2018-05-16T12:27:10.260Z,3.63
2018-05-16T12:29:38.840Z,2.70
2018-05-16T12:32:07.437Z,3.77
2018-05-16T12:34:36.004Z,2.30
2018-05-16T12:37:04.213Z,2.40
2018-05-16T12:39:32.780Z,2.40
2018-05-16T12:42:01.347Z,3.00
2018-05-16T12:44:29.611Z,2.50
2018-05-16T12:46:58.195Z,2.00
2018-05-16T12:49:26.822Z,2.00
2018-05-16T12:51:55.498Z,2.40
2018-05-16T12:54:24.062Z,2.20
2018-05-16T12:56:52.612Z,2.53
2018-05-16T12:59:21.234Z,2.50
2018-05-16T13:01:49.443Z,2.33
2018-05-16T13:04:18.020Z,1.93
2018-05-16T13:06:46.588Z,2.23
2018-05-16T13:09:15.154Z,1.83
2018-05-16T13:11:43.702Z,1.90
2018-05-16T13:14:12.272Z,2.10
2018-05-16T13:16:40.832Z,2.30
2018-05-16T13:19:09.383Z,1.90
2018-05-16T13:21:38.043Z,1.97
2018-05-16T13:24:06.702Z,1.90
2018-05-16T13:26:35.320Z,1.63
2018-05-16T13:29:03.911Z,2.20
2018-05-16T13:31:32.473Z,1.60
2018-05-16T13:34:01.051Z,1.90
2018-05-16T13:36:30.290Z,3.17
2018-05-16T13:38:58.843Z,2.43
2018-05-16T13:41:27.459Z,2.57
2018-05-16T13:43:56.051Z,1.67
2018-05-16T13:46:24.661Z,1.70
2018-05-16T13:48:53.390Z,1.80
2018-05-16T13:51:22.021Z,1.70
2018-05-16T13:53:50.660Z,2.27
2018-05-16T13:56:19.292Z,1.87
2018-05-16T13:58:47.897Z,1.80
2018-05-16T14:01:16.489Z,1.90
2018-05-16T14:03:45.084Z,2.00
2018-05-16T14:06:13.690Z,3.20
2018-05-16T14:08:42.301Z,2.23
2018-05-16T14:11:10.924Z,2.03
2018-05-16T14:13:39.501Z,1.93
2018-05-16T14:16:08.125Z,2.07
2018-05-16T14:18:36.679Z,1.90
2018-05-16T14:21:05.523Z,2.50
2018-05-16T14:23:34.447Z,2.27
2018-05-16T14:26:03.063Z,1.90
2018-05-16T14:28:31.669Z,2.10
2018-05-16T14:31:00.382Z,2.27
2018-05-16T14:33:29.014Z,2.40
2018-05-16T14:35:57.604Z,2.30
2018-05-16T14:38:26.180Z,2.23
2018-05-16T14:40:54.765Z,4.73
2018-05-16T14:43:23.390Z,2.10
2018-05-16T14:45:51.955Z,2.10
2018-05-16T14:48:20.556Z,3.30
2018-05-16T14:50:49.287Z,2.00
2018-05-16T14:53:17.860Z,2.40
2018-05-16T14:55:46.496Z,2.40
2018-05-16T14:58:15.161Z,2.33
2018-05-16T15:00:43.843Z,2.00
2018-05-16T15:03:12.474Z,2.00
2018-05-16T15:05:41.082Z,1.90
2018-05-16T15:08:09.688Z,1.83
2018-05-16T15:10:38.269Z,1.73
2018-05-16T15:13:06.837Z,1.93
2018-05-16T15:15:35.400Z,1.80
2018-05-16T15:18:03.979Z,1.90
2018-05-16T15:20:32.556Z,2.00
2018-05-16T15:23:01.117Z,1.90
2018-05-16T15:25:29.702Z,1.90
2018-05-16T15:27:58.331Z,1.80
2018-05-16T15:30:26.898Z,2.07
2018-05-16T15:32:55.525Z,1.80
2018-05-16T15:35:24.265Z,1.97
2018-05-16T15:37:52.825Z,1.63
2018-05-16T15:40:21.390Z,2.20
2018-05-16T15:42:49.959Z,1.60
2018-05-16T15:45:18.539Z,2.03
2018-05-16T15:47:47.116Z,1.93
2018-05-16T15:50:15.681Z,1.80
2018-05-16T15:52:44.249Z,1.90
2018-05-16T15:55:12.832Z,2.23
2018-05-16T15:57:41.388Z,1.40
2018-05-16T16:00:10.062Z,1.80
2018-05-16T16:02:38.641Z,1.90
2018-05-16T16:05:07.237Z,1.80
2018-05-16T16:07:35.796Z,2.07
2018-05-16T16:10:03.711Z,1.70
2018-05-16T16:12:32.291Z,1.90
2018-05-16T16:15:00.615Z,2.10
2018-05-16T16:17:29.209Z,2.07
2018-05-16T16:19:57.864Z,2.23
2018-05-16T16:22:26.571Z,1.73
2018-05-16T16:24:55.154Z,1.87
2018-05-16T16:27:23.793Z,2.60
2018-05-16T16:29:52.366Z,2.00
2018-05-16T16:32:20.919Z,1.67
2018-05-16T16:34:49.478Z,1.97
2018-05-16T16:37:18.071Z,2.00
2018-05-16T16:39:46.642Z,1.87
2018-05-16T16:42:15.231Z,2.00
2018-05-16T16:44:43.794Z,2.23
2018-05-16T16:47:12.351Z,1.53
2018-05-16T16:49:40.924Z,2.27
2018-05-16T16:52:09.515Z,1.60
2018-05-16T16:54:38.095Z,2.07
2018-05-16T16:57:06.925Z,1.87
2018-05-16T16:59:35.632Z,2.00
2018-05-16T17:02:04.235Z,1.80
2018-05-16T17:04:32.844Z,2.00
2018-05-16T17:07:01.681Z,1.90
2018-05-16T17:09:30.340Z,1.90
2018-05-16T17:11:59.060Z,2.03
2018-05-16T17:14:27.665Z,2.10
2018-05-16T17:16:56.230Z,2.20
2018-05-16T17:19:24.915Z,1.80
2018-05-16T17:21:53.485Z,2.07
2018-05-16T17:24:22.083Z,1.87
2018-05-16T17:26:50.668Z,2.10
2018-05-16T17:29:19.426Z,2.17
2018-05-16T17:31:48.879Z,2.20
2018-05-16T17:34:17.445Z,3.80
2018-05-16T17:36:46.027Z,2.50
2018-05-16T17:39:14.587Z,2.83
2018-05-16T17:41:43.145Z,2.60
2018-05-16T17:44:11.718Z,3.03
2018-05-16T17:46:40.345Z,2.40
2018-05-16T17:49:08.902Z,2.47
2018-05-16T17:51:37.468Z,2.50
2018-05-16T17:54:06.027Z,2.60
2018-05-16T17:56:34.598Z,3.43
2018-05-16T17:59:03.157Z,3.47
2018-05-16T18:01:31.716Z,2.97
2018-05-16T18:04:00.276Z,3.20
2018-05-16T18:06:28.905Z,2.90
2018-05-16T18:08:57.602Z,2.17
2018-05-16T18:11:26.155Z,2.70
2018-05-16T18:14:05.937Z,3.33
2018-05-16T18:16:45.647Z,2.77
2018-05-16T18:19:14.213Z,2.30
2018-05-16T18:21:42.783Z,2.60
2018-05-16T18:24:11.348Z,3.07
2018-05-16T18:26:39.968Z,3.10
2018-05-16T18:29:08.544Z,2.60
2018-05-16T18:31:37.115Z,4.30
2018-05-16T18:34:05.683Z,3.30
2018-05-16T18:36:34.417Z,2.63
2018-05-16T18:39:02.770Z,2.63
2018-05-16T18:41:31.870Z,2.63
2018-05-16T18:44:00.620Z,2.83
2018-05-16T18:46:29.247Z,3.10
2018-05-16T18:48:57.838Z,2.50
2018-05-16T18:51:26.403Z,2.97
2018-05-16T18:53:54.967Z,2.67
